sensor_id;sensor_type;location;lat;lon;timestamp;P1;durP1;ratioP1;P2;durP2;ratioP2
11084;SDS011;5596;46.826;8.650;2022-12-18T00:01:00;5.97;;;3.70;;
11084;SDS011;5596;46.826;8.650;2022-12-18T00:03:31;5.97;;;3.33;;
11084;SDS011;5596;46.826;8.650;2022-12-18T00:05:59;5.03;;;3.30;;
11084;SDS011;5596;46.826;8.650;2022-12-18T00:08:26;6.67;;;3.73;;
11084;SDS011;5596;46.826;8.650;2022-12-18T00:10:53;4.67;;;3.60;;
11084;SDS011;5596;46.826;8.650;2022-12-18T00:13:21;5.93;;;3.30;;
11084;SDS011;5596;46.826;8.650;2022-12-18T00:15:53;6.47;;;3.73;;
11084;SDS011;5596;46.826;8.650;2022-12-18T00:18:20;6.40;;;4.50;;
11084;SDS011;5596;46.826;8.650;2022-12-18T00:20:47;6.03;;;3.90;;
11084;SDS011;5596;46.826;8.650;2022-12-18T00:23:14;6.13;;;3.37;;
11084;SDS011;5596;46.826;8.650;2022-12-18T00:25:41;6.20;;;3.37;;
11084;SDS011;5596;46.826;8.650;2022-12-18T00:28:08;6.70;;;3.87;;
11084;SDS011;5596;46.826;8.650;2022-12-18T00:30:35;7.63;;;4.67;;
11084;SDS011;5596;46.826;8.650;2022-12-18T00:33:04;6.73;;;4.37;;
11084;SDS011;5596;46.826;8.650;2022-12-18T00:35:31;7.10;;;4.03;;
11084;SDS011;5596;46.826;8.650;2022-12-18T00:37:58;6.27;;;3.90;;
11084;SDS011;5596;46.826;8.650;2022-12-18T00:40:25;5.23;;;3.40;;
11084;SDS011;5596;46.826;8.650;2022-12-18T00:42:52;5.70;;;3.33;;
11084;SDS011;5596;46.826;8.650;2022-12-18T00:45:22;7.67;;;3.93;;
11084;SDS011;5596;46.826;8.650;2022-12-18T00:47:49;5.30;;;3.13;;
11084;SDS011;5596;46.826;8.650;2022-12-18T00:50:17;5.03;;;3.40;;
11084;SDS011;5596;46.826;8.650;2022-12-18T00:52:46;5.17;;;3.17;;
11084;SDS011;5596;46.826;8.650;2022-12-18T00:55:13;5.73;;;3.20;;
11084;SDS011;5596;46.826;8.650;2022-12-18T00:57:41;5.40;;;3.13;;
11084;SDS011;5596;46.826;8.650;2022-12-18T01:00:09;4.67;;;2.77;;
11084;SDS011;5596;46.826;8.650;2022-12-18T01:02:40;5.83;;;3.20;;
11084;SDS011;5596;46.826;8.650;2022-12-18T01:05:08;4.83;;;2.90;;
11084;SDS011;5596;46.826;8.650;2022-12-18T01:07:38;4.63;;;3.00;;
11084;SDS011;5596;46.826;8.650;2022-12-18T01:10:05;5.40;;;3.00;;
11084;SDS011;5596;46.826;8.650;2022-12-18T01:12:34;4.77;;;3.13;;
11084;SDS011;5596;46.826;8.650;2022-12-18T01:15:02;5.97;;;3.17;;
11084;SDS011;5596;46.826;8.650;2022-12-18T01:17:30;5.47;;;3.33;;
11084;SDS011;5596;46.826;8.650;2022-12-18T01:19:59;6.17;;;3.17;;
11084;SDS011;5596;46.826;8.650;2022-12-18T01:22:26;4.27;;;2.67;;
11084;SDS011;5596;46.826;8.650;2022-12-18T01:24:55;6.10;;;2.80;;
11084;SDS011;5596;46.826;8.650;2022-12-18T01:27:22;6.20;;;2.60;;
11084;SDS011;5596;46.826;8.650;2022-12-18T01:29:50;6.33;;;2.63;;
11084;SDS011;5596;46.826;8.650;2022-12-18T01:32:18;4.77;;;2.63;;
11084;SDS011;5596;46.826;8.650;2022-12-18T01:34:45;4.53;;;2.50;;
11084;SDS011;5596;46.826;8.650;2022-12-18T01:37:12;2.97;;;2.00;;
11084;SDS011;5596;46.826;8.650;2022-12-18T01:39:40;5.73;;;2.60;;
11084;SDS011;5596;46.826;8.650;2022-12-18T01:42:12;3.73;;;2.43;;
11084;SDS011;5596;46.826;8.650;2022-12-18T01:44:54;3.37;;;2.37;;
11084;SDS011;5596;46.826;8.650;2022-12-18T01:47:24;6.40;;;2.73;;
11084;SDS011;5596;46.826;8.650;2022-12-18T01:49:55;3.93;;;2.47;;
11084;SDS011;5596;46.826;8.650;2022-12-18T01:52:24;4.37;;;2.10;;
11084;SDS011;5596;46.826;8.650;2022-12-18T01:54:54;3.87;;;2.30;;
11084;SDS011;5596;46.826;8.650;2022-12-18T01:57:26;3.70;;;2.20;;
11084;SDS011;5596;46.826;8.650;2022-12-18T01:59:55;4.07;;;2.40;;
11084;SDS011;5596;46.826;8.650;2022-12-18T02:02:27;3.63;;;2.43;;
11084;SDS011;5596;46.826;8.650;2022-12-18T02:04:56;4.87;;;2.53;;
11084;SDS011;5596;46.826;8.650;2022-12-18T02:07:28;4.70;;;2.60;;
11084;SDS011;5596;46.826;8.650;2022-12-18T02:10:05;4.33;;;2.87;;
11084;SDS011;5596;46.826;8.650;2022-12-18T02:12:45;6.67;;;3.20;;
11084;SDS011;5596;46.826;8.650;2022-12-18T02:15:19;5.33;;;3.40;;
11084;SDS011;5596;46.826;8.650;2022-12-18T02:17:54;5.33;;;2.90;;
11084;SDS011;5596;46.826;8.650;2022-12-18T02:20:28;7.43;;;3.63;;
11084;SDS011;5596;46.826;8.650;2022-12-18T02:23:11;7.93;;;4.17;;
11084;SDS011;5596;46.826;8.650;2022-12-18T02:25:59;9.70;;;5.07;;
11084;SDS011;5596;46.826;8.650;2022-12-18T02:28:34;6.43;;;3.93;;
11084;SDS011;5596;46.826;8.650;2022-12-18T02:31:06;7.77;;;4.37;;
11084;SDS011;5596;46.826;8.650;2022-12-18T02:33:38;6.07;;;3.60;;
11084;SDS011;5596;46.826;8.650;2022-12-18T02:36:09;6.77;;;3.50;;
11084;SDS011;5596;46.826;8.650;2022-12-18T02:38:41;6.03;;;3.53;;
11084;SDS011;5596;46.826;8.650;2022-12-18T02:41:14;5.50;;;3.43;;
11084;SDS011;5596;46.826;8.650;2022-12-18T02:43:46;6.33;;;3.00;;
11084;SDS011;5596;46.826;8.650;2022-12-18T02:46:23;4.83;;;3.10;;
11084;SDS011;5596;46.826;8.650;2022-12-18T02:49:06;5.77;;;3.33;;
11084;SDS011;5596;46.826;8.650;2022-12-18T02:51:45;3.07;;;2.33;;
11084;SDS011;5596;46.826;8.650;2022-12-18T02:54:22;7.60;;;2.80;;
11084;SDS011;5596;46.826;8.650;2022-12-18T02:57:00;5.27;;;2.77;;
11084;SDS011;5596;46.826;8.650;2022-12-18T02:59:34;4.27;;;2.77;;
11084;SDS011;5596;46.826;8.650;2022-12-18T03:02:12;4.93;;;3.30;;
11084;SDS011;5596;46.826;8.650;2022-12-18T03:04:50;5.67;;;3.20;;
11084;SDS011;5596;46.826;8.650;2022-12-18T03:07:26;5.90;;;3.50;;
11084;SDS011;5596;46.826;8.650;2022-12-18T03:10:00;5.77;;;3.30;;
11084;SDS011;5596;46.826;8.650;2022-12-18T03:12:30;6.83;;;4.07;;
11084;SDS011;5596;46.826;8.650;2022-12-18T03:15:03;6.27;;;3.67;;
11084;SDS011;5596;46.826;8.650;2022-12-18T03:17:36;5.17;;;3.57;;
11084;SDS011;5596;46.826;8.650;2022-12-18T03:20:07;5.87;;;3.77;;
11084;SDS011;5596;46.826;8.650;2022-12-18T03:22:38;6.10;;;3.50;;
11084;SDS011;5596;46.826;8.650;2022-12-18T03:25:10;6.53;;;3.33;;
11084;SDS011;5596;46.826;8.650;2022-12-18T03:27:42;6.40;;;4.00;;
11084;SDS011;5596;46.826;8.650;2022-12-18T03:30:15;6.70;;;4.23;;
11084;SDS011;5596;46.826;8.650;2022-12-18T03:32:44;8.47;;;4.90;;
11084;SDS011;5596;46.826;8.650;2022-12-18T03:35:16;6.63;;;4.13;;
11084;SDS011;5596;46.826;8.650;2022-12-18T03:37:50;9.30;;;4.30;;
11084;SDS011;5596;46.826;8.650;2022-12-18T03:40:17;7.30;;;4.00;;
11084;SDS011;5596;46.826;8.650;2022-12-18T03:42:48;7.20;;;3.97;;
11084;SDS011;5596;46.826;8.650;2022-12-18T03:45:19;6.90;;;4.10;;
11084;SDS011;5596;46.826;8.650;2022-12-18T03:47:56;7.00;;;3.80;;
11084;SDS011;5596;46.826;8.650;2022-12-18T03:50:36;6.50;;;3.87;;
11084;SDS011;5596;46.826;8.650;2022-12-18T03:53:13;7.03;;;4.17;;
11084;SDS011;5596;46.826;8.650;2022-12-18T03:55:49;7.67;;;4.33;;
11084;SDS011;5596;46.826;8.650;2022-12-18T03:58:20;7.83;;;3.70;;
11084;SDS011;5596;46.826;8.650;2022-12-18T04:00:58;6.80;;;4.00;;
11084;SDS011;5596;46.826;8.650;2022-12-18T04:03:30;7.57;;;4.33;;
11084;SDS011;5596;46.826;8.650;2022-12-18T04:06:01;8.10;;;4.27;;
11084;SDS011;5596;46.826;8.650;2022-12-18T04:08:31;13.87;;;7.47;;
11084;SDS011;5596;46.826;8.650;2022-12-18T04:11:04;8.33;;;4.60;;
11084;SDS011;5596;46.826;8.650;2022-12-18T04:13:35;10.63;;;4.63;;
11084;SDS011;5596;46.826;8.650;2022-12-18T04:16:13;6.47;;;3.67;;
11084;SDS011;5596;46.826;8.650;2022-12-18T04:18:42;6.73;;;3.67;;
11084;SDS011;5596;46.826;8.650;2022-12-18T04:21:09;8.87;;;4.40;;
11084;SDS011;5596;46.826;8.650;2022-12-18T04:23:37;6.87;;;4.40;;
11084;SDS011;5596;46.826;8.650;2022-12-18T04:26:04;8.63;;;4.17;;
11084;SDS011;5596;46.826;8.650;2022-12-18T04:28:56;5.87;;;3.37;;
11084;SDS011;5596;46.826;8.650;2022-12-18T04:31:23;7.83;;;3.97;;
11084;SDS011;5596;46.826;8.650;2022-12-18T04:33:51;7.03;;;4.17;;
11084;SDS011;5596;46.826;8.650;2022-12-18T04:36:18;7.53;;;4.50;;
11084;SDS011;5596;46.826;8.650;2022-12-18T04:38:46;6.13;;;3.50;;
11084;SDS011;5596;46.826;8.650;2022-12-18T04:41:15;8.13;;;4.83;;
11084;SDS011;5596;46.826;8.650;2022-12-18T04:43:45;6.73;;;4.13;;
11084;SDS011;5596;46.826;8.650;2022-12-18T04:46:14;12.70;;;5.37;;
11084;SDS011;5596;46.826;8.650;2022-12-18T04:48:41;6.87;;;4.53;;
11084;SDS011;5596;46.826;8.650;2022-12-18T04:51:08;7.47;;;4.60;;
11084;SDS011;5596;46.826;8.650;2022-12-18T04:53:34;8.60;;;4.63;;
11084;SDS011;5596;46.826;8.650;2022-12-18T04:56:03;8.23;;;4.40;;
11084;SDS011;5596;46.826;8.650;2022-12-18T04:58:31;8.10;;;5.13;;
11084;SDS011;5596;46.826;8.650;2022-12-18T05:00:58;11.00;;;5.73;;
11084;SDS011;5596;46.826;8.650;2022-12-18T05:03:27;9.37;;;4.83;;
11084;SDS011;5596;46.826;8.650;2022-12-18T05:05:54;9.03;;;5.23;;
11084;SDS011;5596;46.826;8.650;2022-12-18T05:08:21;9.17;;;4.93;;
11084;SDS011;5596;46.826;8.650;2022-12-18T05:10:48;9.13;;;5.57;;
11084;SDS011;5596;46.826;8.650;2022-12-18T05:13:15;11.63;;;5.70;;
11084;SDS011;5596;46.826;8.650;2022-12-18T05:15:42;9.43;;;5.43;;
11084;SDS011;5596;46.826;8.650;2022-12-18T05:18:09;8.30;;;4.70;;
11084;SDS011;5596;46.826;8.650;2022-12-18T05:20:37;9.03;;;4.67;;
11084;SDS011;5596;46.826;8.650;2022-12-18T05:23:04;8.20;;;4.33;;
11084;SDS011;5596;46.826;8.650;2022-12-18T05:25:32;10.03;;;5.00;;
11084;SDS011;5596;46.826;8.650;2022-12-18T05:27:59;7.67;;;4.30;;
11084;SDS011;5596;46.826;8.650;2022-12-18T05:30:26;7.07;;;4.33;;
11084;SDS011;5596;46.826;8.650;2022-12-18T05:32:53;7.10;;;4.10;;
11084;SDS011;5596;46.826;8.650;2022-12-18T05:35:20;7.33;;;4.30;;
11084;SDS011;5596;46.826;8.650;2022-12-18T05:37:49;7.03;;;4.10;;
11084;SDS011;5596;46.826;8.650;2022-12-18T05:40:16;10.03;;;5.37;;
11084;SDS011;5596;46.826;8.650;2022-12-18T05:42:43;9.40;;;4.80;;
11084;SDS011;5596;46.826;8.650;2022-12-18T05:45:10;9.80;;;4.67;;
11084;SDS011;5596;46.826;8.650;2022-12-18T05:47:37;7.80;;;4.27;;
11084;SDS011;5596;46.826;8.650;2022-12-18T05:50:05;8.10;;;4.30;;
11084;SDS011;5596;46.826;8.650;2022-12-18T05:52:33;9.17;;;4.23;;
11084;SDS011;5596;46.826;8.650;2022-12-18T05:55:01;7.13;;;3.93;;
11084;SDS011;5596;46.826;8.650;2022-12-18T05:57:28;7.70;;;4.07;;
11084;SDS011;5596;46.826;8.650;2022-12-18T05:59:55;9.07;;;4.70;;
11084;SDS011;5596;46.826;8.650;2022-12-18T06:02:22;7.03;;;4.20;;
11084;SDS011;5596;46.826;8.650;2022-12-18T06:04:50;11.57;;;4.93;;
11084;SDS011;5596;46.826;8.650;2022-12-18T06:07:16;8.33;;;4.87;;
11084;SDS011;5596;46.826;8.650;2022-12-18T06:09:43;9.30;;;4.63;;
11084;SDS011;5596;46.826;8.650;2022-12-18T06:12:12;8.77;;;4.57;;
11084;SDS011;5596;46.826;8.650;2022-12-18T06:14:39;9.10;;;4.60;;
11084;SDS011;5596;46.826;8.650;2022-12-18T06:17:06;12.00;;;5.17;;
11084;SDS011;5596;46.826;8.650;2022-12-18T06:19:33;8.20;;;4.70;;
11084;SDS011;5596;46.826;8.650;2022-12-18T06:22:00;8.93;;;4.80;;
11084;SDS011;5596;46.826;8.650;2022-12-18T06:24:27;8.37;;;5.03;;
11084;SDS011;5596;46.826;8.650;2022-12-18T06:26:54;7.53;;;4.50;;
11084;SDS011;5596;46.826;8.650;2022-12-18T06:29:23;7.47;;;4.77;;
11084;SDS011;5596;46.826;8.650;2022-12-18T06:31:49;8.57;;;4.40;;
11084;SDS011;5596;46.826;8.650;2022-12-18T06:34:17;6.83;;;4.73;;
11084;SDS011;5596;46.826;8.650;2022-12-18T06:36:44;7.27;;;4.27;;
11084;SDS011;5596;46.826;8.650;2022-12-18T06:39:11;10.53;;;4.97;;
11084;SDS011;5596;46.826;8.650;2022-12-18T06:41:38;9.03;;;5.03;;
11084;SDS011;5596;46.826;8.650;2022-12-18T06:44:05;8.57;;;4.87;;
11084;SDS011;5596;46.826;8.650;2022-12-18T06:46:33;9.63;;;4.53;;
11084;SDS011;5596;46.826;8.650;2022-12-18T06:49:00;6.90;;;4.20;;
11084;SDS011;5596;46.826;8.650;2022-12-18T06:51:28;9.37;;;5.30;;
11084;SDS011;5596;46.826;8.650;2022-12-18T06:53:55;9.60;;;5.03;;
11084;SDS011;5596;46.826;8.650;2022-12-18T06:56:22;9.23;;;4.60;;
11084;SDS011;5596;46.826;8.650;2022-12-18T06:58:49;9.87;;;5.47;;
11084;SDS011;5596;46.826;8.650;2022-12-18T07:01:16;10.07;;;5.40;;
11084;SDS011;5596;46.826;8.650;2022-12-18T07:03:45;7.70;;;5.27;;
11084;SDS011;5596;46.826;8.650;2022-12-18T07:06:15;9.13;;;4.83;;
11084;SDS011;5596;46.826;8.650;2022-12-18T07:08:43;11.47;;;5.67;;
11084;SDS011;5596;46.826;8.650;2022-12-18T07:11:11;11.67;;;5.90;;
11084;SDS011;5596;46.826;8.650;2022-12-18T07:13:38;9.03;;;5.00;;
11084;SDS011;5596;46.826;8.650;2022-12-18T07:16:06;8.83;;;5.10;;
11084;SDS011;5596;46.826;8.650;2022-12-18T07:18:34;8.90;;;5.20;;
11084;SDS011;5596;46.826;8.650;2022-12-18T07:21:06;11.03;;;6.70;;
11084;SDS011;5596;46.826;8.650;2022-12-18T07:23:35;14.13;;;5.83;;
11084;SDS011;5596;46.826;8.650;2022-12-18T07:26:03;11.33;;;6.20;;
11084;SDS011;5596;46.826;8.650;2022-12-18T07:28:30;10.00;;;5.80;;
11084;SDS011;5596;46.826;8.650;2022-12-18T07:30:57;9.30;;;5.53;;
11084;SDS011;5596;46.826;8.650;2022-12-18T07:33:28;9.87;;;5.70;;
11084;SDS011;5596;46.826;8.650;2022-12-18T07:35:55;11.53;;;6.27;;
11084;SDS011;5596;46.826;8.650;2022-12-18T07:38:23;10.07;;;6.30;;
11084;SDS011;5596;46.826;8.650;2022-12-18T07:40:51;12.03;;;6.93;;
11084;SDS011;5596;46.826;8.650;2022-12-18T07:43:18;10.63;;;6.13;;
11084;SDS011;5596;46.826;8.650;2022-12-18T07:45:45;11.80;;;6.60;;
11084;SDS011;5596;46.826;8.650;2022-12-18T07:48:15;11.23;;;6.53;;
11084;SDS011;5596;46.826;8.650;2022-12-18T07:50:42;11.50;;;7.40;;
11084;SDS011;5596;46.826;8.650;2022-12-18T07:53:09;14.60;;;8.53;;
11084;SDS011;5596;46.826;8.650;2022-12-18T07:55:38;13.73;;;8.17;;
11084;SDS011;5596;46.826;8.650;2022-12-18T07:58:05;10.97;;;6.90;;
11084;SDS011;5596;46.826;8.650;2022-12-18T08:00:32;14.50;;;7.03;;
11084;SDS011;5596;46.826;8.650;2022-12-18T08:03:00;13.17;;;7.70;;
11084;SDS011;5596;46.826;8.650;2022-12-18T08:05:27;12.83;;;6.67;;
11084;SDS011;5596;46.826;8.650;2022-12-18T08:07:54;10.80;;;6.17;;
11084;SDS011;5596;46.826;8.650;2022-12-18T08:10:22;13.60;;;6.50;;
11084;SDS011;5596;46.826;8.650;2022-12-18T08:12:51;12.90;;;7.00;;
11084;SDS011;5596;46.826;8.650;2022-12-18T08:15:18;13.17;;;6.97;;
11084;SDS011;5596;46.826;8.650;2022-12-18T08:17:45;10.20;;;6.37;;
11084;SDS011;5596;46.826;8.650;2022-12-18T08:20:12;11.40;;;6.80;;
11084;SDS011;5596;46.826;8.650;2022-12-18T08:22:40;19.53;;;9.70;;
11084;SDS011;5596;46.826;8.650;2022-12-18T08:25:07;19.67;;;10.37;;
11084;SDS011;5596;46.826;8.650;2022-12-18T08:27:35;14.70;;;9.10;;
11084;SDS011;5596;46.826;8.650;2022-12-18T08:30:03;16.23;;;9.10;;
11084;SDS011;5596;46.826;8.650;2022-12-18T08:32:34;15.50;;;8.50;;
11084;SDS011;5596;46.826;8.650;2022-12-18T08:35:01;15.10;;;7.30;;
11084;SDS011;5596;46.826;8.650;2022-12-18T08:37:29;14.93;;;8.03;;
11084;SDS011;5596;46.826;8.650;2022-12-18T08:39:56;14.10;;;7.83;;
11084;SDS011;5596;46.826;8.650;2022-12-18T08:42:24;12.70;;;7.57;;
11084;SDS011;5596;46.826;8.650;2022-12-18T08:45:10;16.53;;;8.40;;
11084;SDS011;5596;46.826;8.650;2022-12-18T08:47:37;14.37;;;8.43;;
11084;SDS011;5596;46.826;8.650;2022-12-18T08:50:09;15.63;;;8.43;;
11084;SDS011;5596;46.826;8.650;2022-12-18T08:52:37;16.73;;;9.00;;
11084;SDS011;5596;46.826;8.650;2022-12-18T08:55:07;13.30;;;8.00;;
11084;SDS011;5596;46.826;8.650;2022-12-18T08:57:37;12.97;;;8.07;;
11084;SDS011;5596;46.826;8.650;2022-12-18T09:00:08;15.27;;;8.20;;
11084;SDS011;5596;46.826;8.650;2022-12-18T09:02:38;13.70;;;7.77;;
11084;SDS011;5596;46.826;8.650;2022-12-18T09:05:05;12.90;;;7.90;;
11084;SDS011;5596;46.826;8.650;2022-12-18T09:07:33;14.23;;;8.20;;
11084;SDS011;5596;46.826;8.650;2022-12-18T09:10:00;16.53;;;8.30;;
11084;SDS011;5596;46.826;8.650;2022-12-18T09:12:27;14.70;;;8.23;;
11084;SDS011;5596;46.826;8.650;2022-12-18T09:14:54;14.83;;;8.20;;
11084;SDS011;5596;46.826;8.650;2022-12-18T09:17:22;12.70;;;8.00;;
11084;SDS011;5596;46.826;8.650;2022-12-18T09:19:50;16.67;;;8.70;;
11084;SDS011;5596;46.826;8.650;2022-12-18T09:22:17;15.20;;;8.77;;
11084;SDS011;5596;46.826;8.650;2022-12-18T09:24:44;13.20;;;7.47;;
11084;SDS011;5596;46.826;8.650;2022-12-18T09:27:11;15.53;;;8.00;;
11084;SDS011;5596;46.826;8.650;2022-12-18T09:29:38;13.10;;;7.57;;
11084;SDS011;5596;46.826;8.650;2022-12-18T09:32:05;13.57;;;7.63;;
11084;SDS011;5596;46.826;8.650;2022-12-18T09:34:34;15.00;;;8.77;;
11084;SDS011;5596;46.826;8.650;2022-12-18T09:37:01;15.73;;;8.50;;
11084;SDS011;5596;46.826;8.650;2022-12-18T09:39:28;15.93;;;8.73;;
11084;SDS011;5596;46.826;8.650;2022-12-18T09:41:55;13.50;;;7.83;;
11084;SDS011;5596;46.826;8.650;2022-12-18T09:44:25;15.07;;;7.50;;
11084;SDS011;5596;46.826;8.650;2022-12-18T09:47:00;15.33;;;8.23;;
11084;SDS011;5596;46.826;8.650;2022-12-18T09:49:34;14.73;;;7.93;;
11084;SDS011;5596;46.826;8.650;2022-12-18T09:52:08;11.23;;;7.43;;
11084;SDS011;5596;46.826;8.650;2022-12-18T09:54:47;11.43;;;6.63;;
11084;SDS011;5596;46.826;8.650;2022-12-18T09:57:20;13.63;;;7.53;;
11084;SDS011;5596;46.826;8.650;2022-12-18T09:59:49;11.73;;;7.10;;
11084;SDS011;5596;46.826;8.650;2022-12-18T10:02:22;11.70;;;7.13;;
11084;SDS011;5596;46.826;8.650;2022-12-18T10:04:56;14.37;;;7.97;;
11084;SDS011;5596;46.826;8.650;2022-12-18T10:07:35;15.90;;;9.33;;
11084;SDS011;5596;46.826;8.650;2022-12-18T10:10:13;13.43;;;7.83;;
11084;SDS011;5596;46.826;8.650;2022-12-18T10:12:51;11.53;;;7.50;;
11084;SDS011;5596;46.826;8.650;2022-12-18T10:15:28;14.47;;;7.97;;
11084;SDS011;5596;46.826;8.650;2022-12-18T10:18:03;14.00;;;7.20;;
11084;SDS011;5596;46.826;8.650;2022-12-18T10:20:43;14.50;;;7.57;;
11084;SDS011;5596;46.826;8.650;2022-12-18T10:23:16;10.87;;;6.90;;
11084;SDS011;5596;46.826;8.650;2022-12-18T10:25:51;12.87;;;6.33;;
11084;SDS011;5596;46.826;8.650;2022-12-18T10:28:21;12.07;;;7.23;;
11084;SDS011;5596;46.826;8.650;2022-12-18T10:30:50;12.57;;;8.17;;
11084;SDS011;5596;46.826;8.650;2022-12-18T10:33:18;11.00;;;7.70;;
11084;SDS011;5596;46.826;8.650;2022-12-18T10:35:49;11.07;;;6.87;;
11084;SDS011;5596;46.826;8.650;2022-12-18T10:38:22;11.00;;;6.87;;
11084;SDS011;5596;46.826;8.650;2022-12-18T10:40:52;12.03;;;7.27;;
11084;SDS011;5596;46.826;8.650;2022-12-18T10:43:22;13.33;;;7.80;;
11084;SDS011;5596;46.826;8.650;2022-12-18T10:46:02;13.73;;;7.57;;
11084;SDS011;5596;46.826;8.650;2022-12-18T10:48:39;14.10;;;7.67;;
11084;SDS011;5596;46.826;8.650;2022-12-18T10:51:20;13.23;;;7.60;;
11084;SDS011;5596;46.826;8.650;2022-12-18T10:53:53;12.80;;;7.33;;
11084;SDS011;5596;46.826;8.650;2022-12-18T10:56:24;14.60;;;8.57;;
11084;SDS011;5596;46.826;8.650;2022-12-18T10:58:57;16.53;;;7.70;;
11084;SDS011;5596;46.826;8.650;2022-12-18T11:01:26;13.83;;;8.10;;
11084;SDS011;5596;46.826;8.650;2022-12-18T11:04:00;13.27;;;7.57;;
11084;SDS011;5596;46.826;8.650;2022-12-18T11:06:36;14.17;;;7.97;;
11084;SDS011;5596;46.826;8.650;2022-12-18T11:09:20;13.57;;;7.70;;
11084;SDS011;5596;46.826;8.650;2022-12-18T11:11:50;12.60;;;7.90;;
11084;SDS011;5596;46.826;8.650;2022-12-18T11:14:22;14.37;;;8.70;;
11084;SDS011;5596;46.826;8.650;2022-12-18T11:16:51;14.37;;;8.60;;
11084;SDS011;5596;46.826;8.650;2022-12-18T11:19:21;12.80;;;8.70;;
11084;SDS011;5596;46.826;8.650;2022-12-18T11:21:56;12.57;;;7.20;;
11084;SDS011;5596;46.826;8.650;2022-12-18T11:24:26;12.83;;;8.13;;
11084;SDS011;5596;46.826;8.650;2022-12-18T11:26:57;13.17;;;8.60;;
11084;SDS011;5596;46.826;8.650;2022-12-18T11:29:30;12.60;;;8.23;;
11084;SDS011;5596;46.826;8.650;2022-12-18T11:32:24;12.40;;;8.03;;
11084;SDS011;5596;46.826;8.650;2022-12-18T11:34:58;13.67;;;8.37;;
11084;SDS011;5596;46.826;8.650;2022-12-18T11:37:32;10.80;;;7.77;;
11084;SDS011;5596;46.826;8.650;2022-12-18T11:40:02;10.80;;;7.03;;
11084;SDS011;5596;46.826;8.650;2022-12-18T11:42:39;13.63;;;8.10;;
11084;SDS011;5596;46.826;8.650;2022-12-18T11:48:03;13.37;;;8.27;;
11084;SDS011;5596;46.826;8.650;2022-12-18T11:50:40;13.37;;;8.63;;
11084;SDS011;5596;46.826;8.650;2022-12-18T11:53:14;15.17;;;9.33;;
11084;SDS011;5596;46.826;8.650;2022-12-18T11:55:41;13.53;;;9.10;;
11084;SDS011;5596;46.826;8.650;2022-12-18T11:58:18;13.53;;;9.27;;
11084;SDS011;5596;46.826;8.650;2022-12-18T12:00:56;13.97;;;8.70;;
11084;SDS011;5596;46.826;8.650;2022-12-18T12:03:46;15.10;;;9.40;;
11084;SDS011;5596;46.826;8.650;2022-12-18T12:06:36;14.50;;;9.10;;
11084;SDS011;5596;46.826;8.650;2022-12-18T12:09:15;12.97;;;8.53;;
11084;SDS011;5596;46.826;8.650;2022-12-18T12:11:54;12.90;;;8.07;;
11084;SDS011;5596;46.826;8.650;2022-12-18T12:14:33;15.50;;;9.20;;
11084;SDS011;5596;46.826;8.650;2022-12-18T12:17:11;16.70;;;10.47;;
11084;SDS011;5596;46.826;8.650;2022-12-18T12:19:47;16.80;;;10.13;;
11084;SDS011;5596;46.826;8.650;2022-12-18T12:22:22;16.70;;;9.10;;
11084;SDS011;5596;46.826;8.650;2022-12-18T12:25:04;14.33;;;8.50;;
11084;SDS011;5596;46.826;8.650;2022-12-18T12:27:49;13.00;;;8.37;;
11084;SDS011;5596;46.826;8.650;2022-12-18T12:30:27;14.67;;;7.90;;
11084;SDS011;5596;46.826;8.650;2022-12-18T12:33:05;15.77;;;9.37;;
11084;SDS011;5596;46.826;8.650;2022-12-18T12:35:44;17.63;;;9.40;;
11084;SDS011;5596;46.826;8.650;2022-12-18T12:38:19;14.07;;;8.27;;
11084;SDS011;5596;46.826;8.650;2022-12-18T12:40:51;15.10;;;8.00;;
11084;SDS011;5596;46.826;8.650;2022-12-18T12:43:29;14.30;;;9.07;;
11084;SDS011;5596;46.826;8.650;2022-12-18T12:46:03;14.20;;;9.20;;
11084;SDS011;5596;46.826;8.650;2022-12-18T12:48:33;14.70;;;9.37;;
11084;SDS011;5596;46.826;8.650;2022-12-18T12:51:08;17.90;;;9.47;;
11084;SDS011;5596;46.826;8.650;2022-12-18T12:53:38;15.77;;;9.17;;
11084;SDS011;5596;46.826;8.650;2022-12-18T12:56:08;13.67;;;8.80;;
11084;SDS011;5596;46.826;8.650;2022-12-18T12:58:40;15.30;;;9.23;;
11084;SDS011;5596;46.826;8.650;2022-12-18T13:01:17;15.90;;;10.00;;
11084;SDS011;5596;46.826;8.650;2022-12-18T13:03:54;14.97;;;8.90;;
11084;SDS011;5596;46.826;8.650;2022-12-18T13:06:30;17.07;;;9.50;;
11084;SDS011;5596;46.826;8.650;2022-12-18T13:09:06;14.43;;;8.93;;
11084;SDS011;5596;46.826;8.650;2022-12-18T13:11:38;13.73;;;8.43;;
11084;SDS011;5596;46.826;8.650;2022-12-18T13:14:24;14.50;;;8.80;;
11084;SDS011;5596;46.826;8.650;2022-12-18T13:20:02;14.33;;;8.97;;
11084;SDS011;5596;46.826;8.650;2022-12-18T13:22:34;13.50;;;8.53;;
11084;SDS011;5596;46.826;8.650;2022-12-18T13:25:04;17.87;;;8.83;;
11084;SDS011;5596;46.826;8.650;2022-12-18T13:28:03;16.20;;;9.57;;
11084;SDS011;5596;46.826;8.650;2022-12-18T13:30:48;17.10;;;9.57;;
11084;SDS011;5596;46.826;8.650;2022-12-18T13:36:25;17.13;;;8.30;;
11084;SDS011;5596;46.826;8.650;2022-12-18T13:41:52;13.93;;;8.93;;
11084;SDS011;5596;46.826;8.650;2022-12-18T13:44:28;18.20;;;8.97;;
11084;SDS011;5596;46.826;8.650;2022-12-18T13:46:58;14.40;;;8.63;;
11084;SDS011;5596;46.826;8.650;2022-12-18T13:49:28;16.20;;;8.73;;
11084;SDS011;5596;46.826;8.650;2022-12-18T13:52:13;15.13;;;8.67;;
11084;SDS011;5596;46.826;8.650;2022-12-18T13:54:45;13.90;;;8.07;;
11084;SDS011;5596;46.826;8.650;2022-12-18T13:57:25;16.17;;;9.67;;
11084;SDS011;5596;46.826;8.650;2022-12-18T13:59:55;12.83;;;8.30;;
11084;SDS011;5596;46.826;8.650;2022-12-18T14:02:24;13.27;;;8.40;;
11084;SDS011;5596;46.826;8.650;2022-12-18T14:04:53;13.77;;;8.40;;
11084;SDS011;5596;46.826;8.650;2022-12-18T14:07:21;14.70;;;9.23;;
11084;SDS011;5596;46.826;8.650;2022-12-18T14:09:51;14.97;;;9.50;;
11084;SDS011;5596;46.826;8.650;2022-12-18T14:12:21;30.43;;;16.60;;
11084;SDS011;5596;46.826;8.650;2022-12-18T14:15:14;65.60;;;28.43;;
11084;SDS011;5596;46.826;8.650;2022-12-18T14:17:51;44.93;;;20.53;;
11084;SDS011;5596;46.826;8.650;2022-12-18T14:20:21;26.27;;;11.90;;
11084;SDS011;5596;46.826;8.650;2022-12-18T14:22:50;21.87;;;12.37;;
11084;SDS011;5596;46.826;8.650;2022-12-18T14:25:18;16.67;;;10.40;;
11084;SDS011;5596;46.826;8.650;2022-12-18T14:27:47;16.10;;;10.23;;
11084;SDS011;5596;46.826;8.650;2022-12-18T14:30:24;13.93;;;8.60;;
11084;SDS011;5596;46.826;8.650;2022-12-18T14:33:00;16.67;;;10.20;;
11084;SDS011;5596;46.826;8.650;2022-12-18T14:35:28;14.70;;;9.27;;
11084;SDS011;5596;46.826;8.650;2022-12-18T14:38:08;16.07;;;9.83;;
11084;SDS011;5596;46.826;8.650;2022-12-18T14:40:47;12.03;;;7.90;;
11084;SDS011;5596;46.826;8.650;2022-12-18T14:43:19;15.63;;;9.83;;
11084;SDS011;5596;46.826;8.650;2022-12-18T14:45:47;18.57;;;10.93;;
11084;SDS011;5596;46.826;8.650;2022-12-18T14:48:17;14.80;;;9.37;;
11084;SDS011;5596;46.826;8.650;2022-12-18T14:50:54;16.20;;;9.90;;
11084;SDS011;5596;46.826;8.650;2022-12-18T14:53:28;14.30;;;8.77;;
11084;SDS011;5596;46.826;8.650;2022-12-18T14:56:02;15.70;;;9.60;;
11084;SDS011;5596;46.826;8.650;2022-12-18T14:58:36;12.83;;;7.90;;
11084;SDS011;5596;46.826;8.650;2022-12-18T15:01:05;15.13;;;8.60;;
11084;SDS011;5596;46.826;8.650;2022-12-18T15:03:33;14.20;;;8.60;;
11084;SDS011;5596;46.826;8.650;2022-12-18T15:06:14;16.33;;;9.37;;
11084;SDS011;5596;46.826;8.650;2022-12-18T15:08:42;16.10;;;9.07;;
11084;SDS011;5596;46.826;8.650;2022-12-18T15:11:24;17.00;;;9.47;;
11084;SDS011;5596;46.826;8.650;2022-12-18T15:13:52;17.50;;;10.10;;
11084;SDS011;5596;46.826;8.650;2022-12-18T15:16:23;19.27;;;10.40;;
11084;SDS011;5596;46.826;8.650;2022-12-18T15:18:51;15.37;;;8.83;;
11084;SDS011;5596;46.826;8.650;2022-12-18T15:21:19;13.60;;;9.20;;
11084;SDS011;5596;46.826;8.650;2022-12-18T15:23:47;15.33;;;9.97;;
11084;SDS011;5596;46.826;8.650;2022-12-18T15:26:18;16.27;;;10.07;;
11084;SDS011;5596;46.826;8.650;2022-12-18T15:28:47;16.77;;;9.87;;